Terminal Aerodrome Forecast
Issued by NWS

Home | Current Version | Previous Version | Text Only | Print | Product List | Glossary Off
Versions: 1 2 3 4 5 6 7 8 9 10 11 12 13 14 15 16 17 18

000
FTUS43 KMPX 302112 AAA
TAFRNH
TAF AMD
KRNH 302112Z 3021/3118 10012KT P6SM BKN100
     FM310200 06010KT P6SM SCT050 BKN150
     FM310600 VRB04KT P6SM SKC
     FM311200 29008KT P6SM SKC=

USA.gov is the U.S. government's official web portal to all federal, state and local government web resources and services.